Time;durP1;ratioP1;P1;durP2;ratioP2;P2;SDS_P1;SDS_P2;PMS_P1;PMS_P2;Temp;Humidity;BMP_temperature;BMP_pressure;BME280_temperature;BME280_humidity;BME280_pressure;Samples;Min_cycle;Max_cycle;Signal;HPM_P1;HPM_P2
2021/04/10 00:01:41;;;;;;;34.20;13.98;;;;;;;2.43;46.34;94721.41;5107049;28;20019;-77
2021/04/10 00:04:09;;;;;;;29.63;12.25;;;;;;;2.44;47.46;94726.38;5090913;28;20072;-77
2021/04/10 00:06:35;;;;;;;19.88;8.18;;;;;;;2.44;47.45;94726.38;5090869;28;20032;-77
2021/04/10 00:09:00;;;;;;;16.80;8.00;;;;;;;2.39;47.28;94718.44;5065831;28;20028;-77
2021/04/10 00:11:27;;;;;;;19.83;8.60;;;;;;;2.29;47.71;94726.19;5091267;28;20032;-79
2021/04/10 00:13:53;;;;;;;25.92;9.23;;;;;;;2.19;47.67;94732.84;5064541;28;20031;-78
2021/04/10 00:16:18;;;;;;;19.25;8.73;;;;;;;2.18;47.67;94720.75;5069877;28;20016;-79
2021/04/10 00:18:44;;;;;;;18.80;8.25;;;;;;;2.13;47.64;94719.88;5091198;28;20081;-79
2021/04/10 00:21:09;;;;;;;17.75;7.68;;;;;;;2.08;47.50;94714.53;5106311;28;20402;-79
2021/04/10 00:23:37;;;;;;;16.42;6.53;;;;;;;2.09;47.46;94711.66;5091108;28;20028;-79
2021/04/10 00:26:03;;;;;;;19.73;7.00;;;;;;;2.04;47.80;94708.16;5072527;28;20059;-81
2021/04/10 00:28:28;;;;;;;13.82;6.65;;;;;;;2.04;47.98;94714.22;5090767;28;20452;-79
2021/04/10 00:31:06;;;;;;;12.10;6.18;;;;;;;2.05;48.41;94715.00;5090058;28;20528;-79
2021/04/10 00:33:32;;;;;;;14.85;6.45;;;;;;;2.03;47.90;94711.81;5090844;28;20043;-78
2021/04/10 00:35:57;;;;;;;17.20;5.88;;;;;;;2.00;48.40;94707.84;5090823;28;20450;-78
2021/04/10 00:38:23;;;;;;;14.85;6.30;;;;;;;2.03;48.02;94707.34;5065568;28;20024;-78
2021/04/10 00:40:48;;;;;;;9.27;4.85;;;;;;;2.07;47.67;94703.22;5090682;28;20039;-78
2021/04/10 00:43:14;;;;;;;10.35;4.82;;;;;;;2.04;47.42;94703.69;5090471;28;20020;-77
2021/04/10 00:45:39;;;;;;;12.23;4.88;;;;;;;1.93;48.07;94701.94;5090400;28;20036;-78
2021/04/10 00:48:05;;;;;;;11.48;4.85;;;;;;;1.88;48.29;94697.38;5055177;28;20024;-78
2021/04/10 00:50:30;;;;;;;12.80;4.97;;;;;;;1.88;48.01;94693.97;5090393;28;20093;-78
2021/04/10 00:52:55;;;;;;;12.43;4.45;;;;;;;1.87;47.95;94700.25;5090851;28;20395;-78
2021/04/10 00:55:22;;;;;;;14.48;4.22;;;;;;;1.95;47.36;94707.75;5071987;28;20050;-78
2021/04/10 00:57:48;;;;;;;13.05;5.43;;;;;;;1.95;46.88;94698.00;5061198;28;20036;-78
2021/04/10 01:00:14;;;;;;;17.65;5.80;;;;;;;1.86;47.55;94693.41;5090274;28;20031;-78
2021/04/10 01:02:39;;;;;;;13.60;4.70;;;;;;;1.87;48.66;94692.34;5070734;28;20020;-79
2021/04/10 01:05:05;;;;;;;15.20;5.68;;;;;;;1.89;48.01;94690.28;5072268;28;20472;-79
2021/04/10 01:07:31;;;;;;;11.68;4.63;;;;;;;1.83;48.26;94696.50;5057853;28;20024;-79
2021/04/10 01:09:57;;;;;;;13.70;5.20;;;;;;;1.89;48.45;94695.56;5090539;28;20035;-79
2021/04/10 01:12:28;;;;;;;19.42;5.63;;;;;;;1.84;48.31;94701.53;5089931;28;20047;-79
2021/04/10 01:15:23;;;;;;;13.77;5.50;;;;;;;1.85;48.69;94699.69;5079332;28;20483;-79
2021/04/10 01:17:58;;;;;;;14.70;5.18;;;;;;;1.78;48.18;94700.63;5019612;28;20500;-79
2021/04/10 01:21:04;;;;;;;14.07;6.13;;;;;;;1.73;48.96;94703.19;5089945;28;20031;-79
2021/04/10 01:24:07;;;;;;;22.35;8.38;;;;;;;1.68;49.65;94703.09;5066177;28;20035;-78
2021/04/10 01:27:03;;;;;;;19.15;5.88;;;;;;;1.64;49.42;94706.44;5088650;28;20480;-79
2021/04/10 01:29:33;;;;;;;13.02;4.85;;;;;;;1.56;49.81;94707.59;5071446;28;20380;-78
2021/04/10 01:31:59;;;;;;;18.55;5.30;;;;;;;1.45;49.60;94705.84;5090001;28;20023;-79
2021/04/10 01:34:40;;;;;;;15.82;5.55;;;;;;;1.49;50.07;94706.97;5055195;28;20048;-78
2021/04/10 01:37:13;;;;;;;14.32;5.47;;;;;;;1.50;50.13;94692.78;5089996;28;20028;-77
2021/04/10 01:39:38;;;;;;;15.70;4.70;;;;;;;1.49;50.06;94707.75;5089449;28;20550;-77
2021/04/10 01:42:07;;;;;;;13.70;5.75;;;;;;;1.51;50.17;94699.66;5089974;28;20165;-77
2021/04/10 01:44:32;;;;;;;22.95;7.05;;;;;;;1.53;50.02;94706.25;5089869;28;20031;-77
2021/04/10 01:47:01;;;;;;;16.25;6.93;;;;;;;1.59;49.28;94697.44;5090021;28;20039;-77
2021/04/10 01:49:29;;;;;;;19.13;7.75;;;;;;;1.52;48.92;94703.84;5089776;28;20032;-76
2021/04/10 01:51:56;;;;;;;19.40;7.78;;;;;;;1.47;49.76;94693.28;5089649;28;20032;-77
2021/04/10 01:54:22;;;;;;;19.95;8.52;;;;;;;1.43;49.81;94686.91;5089556;28;20146;-75
2021/04/10 01:56:48;;;;;;;22.15;9.55;;;;;;;1.44;49.62;94688.47;5089654;28;20028;-77
2021/04/10 01:59:15;;;;;;;19.45;8.57;;;;;;;1.38;49.76;94690.19;5065681;28;20024;-77
2021/04/10 02:01:43;;;;;;;22.90;9.80;;;;;;;1.41;49.73;94684.50;5072810;28;20036;-77
2021/04/10 02:04:11;;;;;;;22.10;9.48;;;;;;;1.45;50.30;94682.19;5093771;28;20463;-78
2021/04/10 02:06:38;;;;;;;24.40;9.93;;;;;;;1.46;50.05;94686.41;5075236;28;20040;-77
2021/04/10 02:09:09;;;;;;;20.80;9.20;;;;;;;1.33;50.50;94690.91;5093725;28;20028;-77
2021/04/10 02:11:36;;;;;;;21.85;8.98;;;;;;;1.32;51.56;94686.72;5061475;28;20036;-76
2021/04/10 02:14:05;;;;;;;20.48;9.25;;;;;;;1.32;50.58;94685.88;5067057;28;20024;-78
2021/04/10 02:16:31;;;;;;;21.45;9.45;;;;;;;1.33;50.99;94693.53;5093576;28;20098;-77
2021/04/10 02:18:57;;;;;;;23.85;9.98;;;;;;;1.28;51.25;94688.19;5093483;28;20036;-78
2021/04/10 02:21:27;;;;;;;21.42;9.50;;;;;;;1.29;51.47;94689.00;5074886;28;20395;-78
2021/04/10 02:23:53;;;;;;;23.23;9.27;;;;;;;1.35;51.32;94688.06;5093402;28;20028;-77
2021/04/10 02:26:20;;;;;;;26.00;9.50;;;;;;;1.26;50.72;94685.00;5066628;28;20111;-77
2021/04/10 02:28:46;;;;;;;22.35;9.80;;;;;;;1.27;51.28;94693.69;5059613;28;20048;-77
2021/04/10 02:31:21;;;;;;;28.33;12.15;;;;;;;1.22;52.00;94694.38;5069400;28;20507;-78
2021/04/10 02:33:49;;;;;;;31.38;12.45;;;;;;;1.20;51.80;94680.66;5092910;28;20123;-78
2021/04/10 02:36:19;;;;;;;30.63;11.95;;;;;;;1.24;52.01;94681.78;5093300;28;20534;-78
2021/04/10 02:38:45;;;;;;;25.65;10.23;;;;;;;1.22;51.91;94680.44;5074664;28;20408;-78
2021/04/10 02:41:15;;;;;;;26.05;10.50;;;;;;;1.15;51.66;94683.22;5071751;28;20044;-78
2021/04/10 02:43:45;;;;;;;27.65;10.98;;;;;;;1.18;51.68;94686.19;5092801;28;20024;-77
2021/04/10 02:46:14;;;;;;;22.83;8.55;;;;;;;1.15;51.93;94683.22;5060541;28;20103;-77
2021/04/10 02:49:20;;;;;;;23.05;8.50;;;;;;;1.03;51.23;94688.50;5074365;28;20036;-76
2021/04/10 02:51:49;;;;;;;17.75;7.78;;;;;;;1.07;51.63;94688.84;5057790;28;20559;-76
2021/04/10 02:54:20;;;;;;;17.88;8.35;;;;;;;0.98;52.20;94683.94;5074359;28;20114;-77
2021/04/10 02:56:55;;;;;;;16.80;7.53;;;;;;;0.87;51.39;94679.50;5063005;28;20468;-77
2021/04/10 02:59:22;;;;;;;22.48;8.85;;;;;;;0.94;51.77;94685.44;5063420;28;20028;-77
2021/04/10 03:01:51;;;;;;;20.45;7.78;;;;;;;0.95;51.29;94681.78;5092750;28;20066;-76
2021/04/10 03:04:16;;;;;;;17.25;7.80;;;;;;;0.72;51.67;94671.34;5092613;28;20450;-77
2021/04/10 03:06:42;;;;;;;16.90;7.25;;;;;;;0.79;51.78;94677.25;5070153;28;20032;-77
2021/04/10 03:09:09;;;;;;;22.05;7.70;;;;;;;0.86;52.47;94692.91;5064844;28;20028;-77
2021/04/10 03:11:35;;;;;;;18.65;7.10;;;;;;;0.84;52.45;94685.25;5065413;28;20048;-79
2021/04/10 03:14:04;;;;;;;19.75;8.77;;;;;;;0.84;51.91;94685.25;5067518;28;20024;-79
2021/04/10 03:16:32;;;;;;;30.13;10.82;;;;;;;0.91;51.60;94690.34;5065752;28;20468;-79
2021/04/10 03:18:58;;;;;;;18.40;8.48;;;;;;;0.94;51.19;94695.16;5058768;28;20535;-78
2021/04/10 03:21:24;;;;;;;19.35;8.43;;;;;;;0.94;51.52;94703.81;5092245;28;20036;-79
2021/04/10 03:23:49;;;;;;;19.52;8.75;;;;;;;0.86;52.53;94698.94;5092023;28;20032;-77
2021/04/10 03:26:17;;;;;;;28.05;8.95;;;;;;;0.82;51.91;94703.03;5068081;28;20385;-77
2021/04/10 03:28:43;;;;;;;31.45;9.65;;;;;;;0.84;51.91;94708.88;5092039;28;20043;-78
2021/04/10 03:31:09;;;;;;;24.05;9.73;;;;;;;0.89;52.02;94713.41;5067039;28;20071;-77
2021/04/10 03:33:36;;;;;;;18.67;8.98;;;;;;;0.82;52.23;94713.53;5092080;28;20468;-78
2021/04/10 03:36:02;;;;;;;20.67;9.20;;;;;;;0.84;52.99;94719.38;5091939;28;20038;-77
2021/04/10 03:38:28;;;;;;;21.33;9.45;;;;;;;0.84;52.44;94715.94;5091727;28;20138;-77
2021/04/10 03:40:53;;;;;;;20.42;9.02;;;;;;;0.84;52.03;94716.75;5091624;28;20565;-77
2021/04/10 03:43:19;;;;;;;17.40;8.82;;;;;;;0.78;52.53;94705.34;5091452;28;20023;-78
2021/04/10 03:45:45;;;;;;;24.63;9.38;;;;;;;0.83;52.69;94712.50;5103110;28;20067;-79
2021/04/10 03:48:12;;;;;;;21.45;9.27;;;;;;;0.83;52.61;94711.72;5056720;28;20021;-78
2021/04/10 03:50:38;;;;;;;22.10;9.15;;;;;;;0.80;52.97;94703.28;5091792;28;20038;-79
2021/04/10 03:53:04;;;;;;;25.83;9.88;;;;;;;0.80;52.62;94705.09;5088748;28;20024;-77
2021/04/10 03:55:29;;;;;;;30.98;10.77;;;;;;;0.80;52.05;94712.97;5073131;28;20031;-78
2021/04/10 03:57:55;;;;;;;34.35;11.25;;;;;;;0.80;52.90;94712.97;5073507;28;20521;-78
2021/04/10 04:00:21;;;;;;;51.25;14.70;;;;;;;0.81;52.93;94714.56;5091363;28;20493;-79
2021/04/10 04:02:46;;;;;;;43.58;14.63;;;;;;;0.81;52.99;94722.44;5091194;28;20565;-78
2021/04/10 04:05:12;;;;;;;45.22;12.25;;;;;;;0.80;52.43;94723.47;5091143;28;20024;-78
2021/04/10 04:07:38;;;;;;;40.85;13.13;;;;;;;0.79;52.79;94721.88;5065058;28;20495;-81
2021/04/10 04:10:05;;;;;;;26.63;9.55;;;;;;;0.85;53.36;94718.31;5091883;28;20464;-80
2021/04/10 04:12:30;;;;;;;40.83;10.32;;;;;;;0.81;52.25;94717.19;5089110;28;20403;-80
2021/04/10 04:14:55;;;;;;;29.85;10.63;;;;;;;0.76;52.73;94714.47;5091552;28;20020;-80
2021/04/10 04:17:21;;;;;;;22.25;9.55;;;;;;;0.83;52.56;94724.84;5064527;28;20020;-79
2021/04/10 04:19:46;;;;;;;26.88;9.77;;;;;;;0.84;52.50;94719.38;5072782;28;20030;-80
2021/04/10 04:22:12;;;;;;;21.77;9.63;;;;;;;0.90;53.03;94720.28;5056049;28;20092;-78
2021/04/10 04:24:37;;;;;;;59.63;25.27;;;;;;;0.90;52.84;94715.81;5066132;28;20403;-79
2021/04/10 04:27:04;;;;;;;55.13;19.70;;;;;;;0.93;52.70;94722.41;5065960;28;20461;-77
2021/04/10 04:29:29;;;;;;;51.85;18.30;;;;;;;0.94;52.78;94727.44;5090769;28;20056;-77
2021/04/10 04:31:55;;;;;;;36.72;16.05;;;;;;;1.03;53.06;94716.59;5090801;28;20109;-77
2021/04/10 04:34:20;;;;;;;37.60;15.57;;;;;;;1.02;52.47;94722.84;5090559;28;20024;-77
2021/04/10 04:36:46;;;;;;;36.88;13.80;;;;;;;1.07;52.53;94722.97;5072251;28;20020;-78
2021/04/10 04:39:12;;;;;;;29.88;12.77;;;;;;;1.13;52.97;94719.41;5066905;28;20060;-78
2021/04/10 04:41:37;;;;;;;39.45;14.27;;;;;;;1.15;52.67;94723.41;5061131;28;20483;-78
2021/04/10 04:44:03;;;;;;;39.95;12.77;;;;;;;1.24;52.19;94715.94;5091027;28;20031;-80
2021/04/10 04:46:28;;;;;;;34.80;13.15;;;;;;;1.30;52.25;94717.63;5072082;28;20461;-80
2021/04/10 04:48:53;;;;;;;30.70;13.20;;;;;;;1.37;51.99;94720.94;5106166;28;20544;-80
2021/04/10 04:51:20;;;;;;;35.15;13.38;;;;;;;1.45;51.57;94718.97;5090418;28;20059;-78
2021/04/10 04:53:46;;;;;;;27.92;12.50;;;;;;;1.48;52.08;94721.91;5090565;28;20035;-80
2021/04/10 04:56:11;;;;;;;35.38;13.18;;;;;;;1.51;52.59;94718.84;5061090;28;20497;-80
2021/04/10 04:58:37;;;;;;;26.17;12.90;;;;;;;1.63;52.74;94731.09;5095848;28;20094;-80
2021/04/10 05:01:02;;;;;;;38.25;13.05;;;;;;;1.67;53.04;94717.28;5090148;28;20024;-79
2021/04/10 05:03:28;;;;;;;24.55;11.38;;;;;;;1.74;52.77;94719.75;5090371;28;20024;-79
2021/04/10 05:05:53;;;;;;;35.85;13.10;;;;;;;1.81;52.27;94715.13;5091445;28;20073;-78
2021/04/10 05:08:19;;;;;;;26.90;11.02;;;;;;;1.87;52.92;94722.06;5097308;28;20024;-79
2021/04/10 05:10:44;;;;;;;25.77;10.65;;;;;;;1.94;52.58;94729.81;5089979;28;20052;-79
2021/04/10 05:13:09;;;;;;;26.85;12.02;;;;;;;1.96;52.17;94725.91;5055544;28;20020;-80
2021/04/10 05:15:35;;;;;;;35.85;11.70;;;;;;;1.99;51.68;94733.34;5089948;28;20107;-79
2021/04/10 05:18:00;;;;;;;26.90;12.00;;;;;;;2.12;51.34;94721.72;5088830;28;20029;-80
2021/04/10 05:20:26;;;;;;;23.75;11.13;;;;;;;2.21;50.83;94732.63;5102735;28;20066;-80
2021/04/10 05:22:53;;;;;;;35.45;12.45;;;;;;;2.25;50.27;94732.94;5089662;28;20461;-80
2021/04/10 05:25:18;;;;;;;34.55;12.48;;;;;;;2.32;49.63;94730.94;5068737;28;20024;-80
2021/04/10 05:27:44;;;;;;;25.05;11.43;;;;;;;2.37;49.57;94736.31;5089813;28;20397;-81
2021/04/10 05:30:10;;;;;;;30.08;12.05;;;;;;;2.47;50.00;94733.03;5094293;28;20512;-81
2021/04/10 05:32:35;;;;;;;40.50;13.65;;;;;;;2.57;50.08;94733.97;5089349;28;20479;-80
2021/04/10 05:35:00;;;;;;;36.67;11.32;;;;;;;2.67;49.87;94733.31;5089519;28;20153;-81
2021/04/10 05:37:26;;;;;;;30.70;12.55;;;;;;;2.69;50.02;94730.47;5089484;28;20023;-81
2021/04/10 05:39:51;;;;;;;40.50;11.43;;;;;;;2.70;49.62;94739.94;5089322;28;20024;-80
2021/04/10 05:42:17;;;;;;;30.95;11.85;;;;;;;2.68;49.36;94734.13;5101131;28;20118;-78
2021/04/10 05:44:42;;;;;;;37.03;13.23;;;;;;;2.64;49.39;94746.97;5105361;28;20129;-77
2021/04/10 05:47:07;;;;;;;24.98;11.30;;;;;;;2.67;48.71;94749.13;5089709;28;20388;-79
2021/04/10 05:49:33;;;;;;;31.15;11.80;;;;;;;2.65;48.85;94738.03;5098293;28;20491;-80
2021/04/10 05:51:58;;;;;;;25.40;11.45;;;;;;;2.66;48.98;94741.47;5054430;28;20024;-79
2021/04/10 05:54:24;;;;;;;28.35;11.10;;;;;;;2.72;48.81;94743.13;5089764;28;20103;-79
2021/04/10 05:56:49;;;;;;;34.25;14.38;;;;;;;2.89;48.72;94746.53;5070193;28;20053;-80
2021/04/10 05:59:15;;;;;;;35.28;12.50;;;;;;;3.03;47.89;94743.53;5089443;28;20115;-80
2021/04/10 06:01:40;;;;;;;29.55;12.20;;;;;;;3.10;47.40;94742.31;5089687;28;20024;-80
2021/04/10 06:04:06;;;;;;;30.27;11.68;;;;;;;3.19;47.27;94737.41;5061665;28;20035;-81
2021/04/10 06:06:31;;;;;;;36.28;12.23;;;;;;;3.26;47.45;94740.69;5071194;28;20028;-80
2021/04/10 06:08:57;;;;;;;32.10;11.93;;;;;;;3.41;47.25;94726.88;5089544;28;20031;-81
2021/04/10 06:11:22;;;;;;;27.00;12.55;;;;;;;3.51;47.41;94728.84;5089784;28;20102;-80
2021/04/10 06:13:48;;;;;;;34.55;12.90;;;;;;;3.59;47.06;94731.03;5089893;28;20558;-78
2021/04/10 06:16:13;;;;;;;26.67;11.77;;;;;;;3.71;47.20;94731.69;5062810;28;20386;-79
2021/04/10 06:18:38;;;;;;;31.13;12.18;;;;;;;3.80;47.10;94740.72;5089572;28;20051;-79
2021/04/10 06:21:05;;;;;;;29.35;11.73;;;;;;;3.91;46.77;94727.63;5088857;28;20028;-78
2021/04/10 06:23:30;;;;;;;25.67;9.93;;;;;;;3.98;46.10;94731.69;5089163;28;20028;-78
2021/04/10 06:25:56;;;;;;;33.10;10.45;;;;;;;3.99;45.58;94729.84;5088588;28;20027;-76
2021/04/10 06:28:22;;;;;;;30.38;10.80;;;;;;;4.06;45.10;94742.84;5089020;28;20434;-77
2021/04/10 06:30:47;;;;;;;24.60;10.38;;;;;;;4.07;44.87;94734.69;5088980;28;20024;-77
2021/04/10 06:33:13;;;;;;;28.98;10.77;;;;;;;4.09;45.00;94743.13;5088749;28;20042;-77
2021/04/10 06:35:38;;;;;;;23.95;10.35;;;;;;;4.14;44.89;94751.09;5063850;28;20016;-76
2021/04/10 06:38:04;;;;;;;23.60;9.75;;;;;;;4.16;44.69;94751.63;5062278;28;20475;-77
2021/04/10 06:40:30;;;;;;;18.15;8.35;;;;;;;4.31;43.64;94747.53;5088908;28;20052;-77
2021/04/10 06:42:57;;;;;;;16.77;7.55;;;;;;;4.32;41.73;94757.06;5053956;28;20032;-77
2021/04/10 06:45:23;;;;;;;14.88;6.85;;;;;;;4.19;41.87;94753.78;5063986;28;20503;-78
2021/04/10 06:47:51;;;;;;;17.40;7.18;;;;;;;4.26;42.20;94743.00;5061992;28;20032;-77
2021/04/10 06:50:16;;;;;;;18.80;6.10;;;;;;;4.38;41.29;94748.91;5058824;28;20058;-77
2021/04/10 06:52:43;;;;;;;18.75;6.75;;;;;;;4.53;40.70;94737.66;5092590;28;20031;-81
2021/04/10 06:55:14;;;;;;;14.07;7.50;;;;;;;4.61;40.34;94739.03;5092199;28;20024;-77
2021/04/10 06:58:04;;;;;;;14.98;7.00;;;;;;;4.80;39.87;94739.44;5065884;28;20110;-77
2021/04/10 07:00:30;;;;;;;18.38;5.88;;;;;;;4.95;39.78;94742.19;5080085;28;20043;-77
2021/04/10 07:02:57;;;;;;;14.75;5.22;;;;;;;5.00;39.48;94733.47;5058707;28;20074;-78
2021/04/10 07:05:23;;;;;;;14.05;5.93;;;;;;;5.11;39.36;94734.31;5068377;28;20042;-77
2021/04/10 07:07:50;;;;;;;11.90;5.15;;;;;;;5.19;38.97;94725.88;5092161;28;20115;-78
2021/04/10 07:10:16;;;;;;;12.63;4.82;;;;;;;5.27;38.74;94725.44;5057012;28;20032;-76
2021/04/10 07:12:42;;;;;;;21.35;5.78;;;;;;;5.38;38.53;94727.03;5073399;28;20046;-78
2021/04/10 07:15:10;;;;;;;20.65;5.18;;;;;;;5.52;38.14;94730.00;5091472;28;20052;-78
2021/04/10 07:17:35;;;;;;;14.50;5.28;;;;;;;5.62;36.52;94727.41;5091736;28;20040;-78
2021/04/10 07:20:30;;;;;;;13.80;4.32;;;;;;;5.72;36.61;94728.47;5070800;28;20081;-78
2021/04/10 07:23:04;;;;;;;10.00;3.63;;;;;;;5.76;36.96;94733.00;5062500;28;20044;-78
2021/04/10 07:25:32;;;;;;;8.68;3.58;;;;;;;5.74;37.56;94729.81;5058517;28;20423;-78
2021/04/10 07:28:25;;;;;;;10.93;3.90;;;;;;;5.81;37.46;94734.84;5056676;28;20158;-78
2021/04/10 07:31:03;;;;;;;7.53;3.75;;;;;;;5.83;38.43;94743.31;5068861;28;20016;-78
2021/04/10 07:33:31;;;;;;;15.07;4.47;;;;;;;5.80;38.63;94733.25;5073165;28;20036;-77
2021/04/10 07:35:57;;;;;;;11.13;4.30;;;;;;;5.92;38.37;94739.13;5067503;28;20104;-77
2021/04/10 07:38:27;;;;;;;11.32;4.53;;;;;;;6.07;37.65;94738.38;5091289;28;20023;-78
2021/04/10 07:40:53;;;;;;;17.58;4.57;;;;;;;6.17;37.44;94733.09;5090940;28;20042;-77
2021/04/10 07:43:31;;;;;;;13.63;4.10;;;;;;;6.16;36.68;94733.34;5091523;28;20020;-78
2021/04/10 07:46:13;;;;;;;7.25;3.83;;;;;;;6.27;35.58;94734.97;5091097;28;20057;-77
2021/04/10 07:48:40;;;;;;;12.45;4.75;;;;;;;6.31;35.18;94732.56;5091178;28;20115;-78
2021/04/10 07:51:14;;;;;;;15.25;4.47;;;;;;;6.42;34.85;94726.22;5063201;28;20024;-77
2021/04/10 07:53:40;;;;;;;7.90;4.10;;;;;;;6.55;35.04;94723.00;5068717;28;20032;-78
2021/04/10 07:56:08;;;;;;;10.63;3.83;;;;;;;6.72;34.31;94728.06;5090932;28;20360;-77
2021/04/10 07:58:37;;;;;;;20.25;4.45;;;;;;;6.91;32.97;94720.31;5091126;28;20020;-79
2021/04/10 08:01:06;;;;;;;12.27;4.15;;;;;;;7.00;33.44;94718.72;5058804;28;20028;-79
2021/04/10 08:03:39;;;;;;;15.43;6.05;;;;;;;7.16;34.40;94726.63;5056344;28;20040;-80
2021/04/10 08:06:08;;;;;;;9.60;4.28;;;;;;;7.31;34.74;94723.16;5055983;28;20396;-79
2021/04/10 08:08:57;;;;;;;9.48;4.72;;;;;;;7.47;33.75;94723.84;5068519;28;20032;-80
2021/04/10 08:11:37;;;;;;;12.32;4.25;;;;;;;7.62;33.17;94718.50;5071415;28;20024;-81
2021/04/10 08:14:07;;;;;;;14.60;5.60;;;;;;;7.67;32.85;94721.09;5090623;28;20415;-81
2021/04/10 08:16:41;;;;;;;11.25;4.70;;;;;;;7.49;32.02;94729.69;5090465;28;20459;-82
2021/04/10 08:19:07;;;;;;;13.30;5.70;;;;;;;7.55;32.00;94724.09;5072451;28;20080;-82
2021/04/10 08:21:33;;;;;;;13.57;4.05;;;;;;;7.64;31.71;94716.38;5072092;28;20547;-82
2021/04/10 08:24:00;;;;;;;13.65;4.32;;;;;;;7.68;31.72;94717.41;5090676;28;20403;-81
2021/04/10 08:26:26;;;;;;;9.15;4.70;;;;;;;7.77;31.21;94712.31;5072165;28;20148;-81
2021/04/10 08:28:52;;;;;;;12.80;4.63;;;;;;;7.83;31.79;94711.22;5069659;28;20025;-81
2021/04/10 08:31:18;;;;;;;16.23;4.47;;;;;;;7.94;31.55;94709.31;5090637;28;20026;-82
2021/04/10 08:33:44;;;;;;;17.73;4.95;;;;;;;7.86;31.34;94702.72;5090320;28;20023;-82
2021/04/10 08:36:11;;;;;;;15.68;5.25;;;;;;;8.01;30.86;94709.78;5090439;28;20050;-85
2021/04/10 08:38:39;;;;;;;15.93;5.30;;;;;;;8.19;31.09;94693.19;5090103;28;20024;-82
2021/04/10 08:41:07;;;;;;;13.40;5.70;;;;;;;8.34;31.16;94688.81;5070502;28;20219;-83
2021/04/10 08:43:37;;;;;;;17.80;5.35;;;;;;;8.46;31.18;94694.59;5056805;28;20035;-84
2021/04/10 08:46:05;;;;;;;13.93;5.07;;;;;;;8.60;31.08;94692.88;5090166;28;20469;-84
2021/04/10 08:48:33;;;;;;;14.93;5.38;;;;;;;8.72;30.44;94692.50;5090195;28;20081;-84
2021/04/10 08:51:03;;;;;;;13.07;5.38;;;;;;;8.86;29.96;94692.66;5089951;28;20030;-84
2021/04/10 08:53:34;;;;;;;15.15;5.05;;;;;;;8.83;29.78;94693.19;5090878;28;20055;-84
2021/04/10 08:56:09;;;;;;;15.35;4.78;;;;;;;8.96;30.73;94687.22;5063605;28;20042;-84
2021/04/10 08:58:37;;;;;;;19.45;5.03;;;;;;;9.12;30.21;94695.84;5064819;28;20036;-84
2021/04/10 09:01:06;;;;;;;8.82;4.50;;;;;;;9.23;29.45;94686.66;5071726;28;20040;-84
2021/04/10 09:03:46;;;;;;;17.55;4.47;;;;;;;9.38;29.12;94683.03;5089892;28;20036;-84
2021/04/10 09:06:13;;;;;;;23.98;5.95;;;;;;;9.48;29.95;94678.66;5065712;28;20475;-82
2021/04/10 09:08:38;;;;;;;14.27;4.75;;;;;;;9.64;30.30;94685.38;5089233;28;20402;-83
2021/04/10 09:11:05;;;;;;;12.05;4.82;;;;;;;9.73;28.26;94677.50;5090153;28;20082;-83
2021/04/10 09:13:46;;;;;;;11.48;4.32;;;;;;;9.80;26.83;94672.63;5058028;28;20030;-84
2021/04/10 09:16:38;;;;;;;9.07;4.53;;;;;;;9.76;27.32;94664.44;5089842;28;20083;-83
2021/04/10 09:19:10;;;;;;;9.15;4.30;;;;;;;9.89;28.03;94664.78;5089819;28;20027;-83
2021/04/10 09:21:40;;;;;;;8.13;4.55;;;;;;;9.97;28.29;94659.63;5066018;28;20407;-83
2021/04/10 09:24:18;;;;;;;11.50;4.65;;;;;;;10.11;27.66;94654.34;5068777;28;20028;-83
2021/04/10 09:27:05;;;;;;;11.05;3.97;;;;;;;10.23;27.19;94649.34;5067064;28;20058;-82
2021/04/10 09:30:11;;;;;;;13.63;3.65;;;;;;;10.30;26.13;94642.88;5063202;28;20028;-83
2021/04/10 09:32:44;;;;;;;11.63;4.10;;;;;;;10.44;26.63;94643.72;5088912;28;20097;-83
2021/04/10 09:35:11;;;;;;;8.15;4.18;;;;;;;10.54;27.00;94634.75;5089800;28;20016;-82
2021/04/10 09:37:36;;;;;;;7.32;3.03;;;;;;;10.69;26.36;94633.72;5067265;28;20061;-83
2021/04/10 09:40:12;;;;;;;11.02;3.38;;;;;;;10.79;26.18;94631.66;5088995;28;20546;-83
2021/04/10 09:45:24;;;;;;;6.65;3.80;;;;;;;10.90;25.81;94634.91;5089383;28;20047;-83
2021/04/10 09:48:01;;;;;;;10.95;4.30;;;;;;;10.73;25.90;94630.16;5071438;28;20032;-83
2021/04/10 09:50:29;;;;;;;6.95;3.75;;;;;;;10.81;26.59;94631.34;5089525;28;20472;-83
2021/04/10 09:52:56;;;;;;;9.35;3.67;;;;;;;10.80;25.55;94624.44;5066794;28;20023;-82
2021/04/10 09:55:23;;;;;;;8.18;3.53;;;;;;;10.95;25.44;94618.81;5064659;28;20488;-83
2021/04/10 09:57:55;;;;;;;11.05;4.00;;;;;;;11.10;25.86;94615.06;5057316;28;20024;-82
2021/04/10 10:00:27;;;;;;;10.00;3.60;;;;;;;11.29;25.33;94620.25;5090027;28;20036;-80
2021/04/10 10:02:57;;;;;;;5.95;3.17;;;;;;;11.31;24.06;94599.41;5067675;28;20033;-76
2021/04/10 10:05:23;;;;;;;7.22;3.58;;;;;;;11.42;24.83;94606.13;5071458;28;20067;-76
2021/04/10 10:07:50;;;;;;;10.40;3.22;;;;;;;11.53;24.08;94609.34;5088200;28;20035;-77
2021/04/10 10:10:16;;;;;;;10.45;3.95;;;;;;;11.61;23.73;94605.19;5061318;28;20120;-76
2021/04/10 10:12:42;;;;;;;9.77;4.15;;;;;;;11.71;23.17;94604.19;5069791;28;20028;-76
2021/04/10 10:15:23;;;;;;;9.48;3.50;;;;;;;11.55;23.32;94601.06;5069777;28;20308;-76
2021/04/10 10:17:49;;;;;;;7.53;3.38;;;;;;;11.71;23.43;94596.16;5087839;28;20118;-76
2021/04/10 10:20:15;;;;;;;9.00;4.10;;;;;;;11.74;23.20;94596.34;5089922;28;20107;-76
2021/04/10 10:22:42;;;;;;;7.68;3.33;;;;;;;11.74;22.90;94588.31;5066210;28;20407;-76
2021/04/10 10:25:09;;;;;;;7.30;3.60;;;;;;;11.68;23.59;94589.53;5072242;28;20024;-76
2021/04/10 10:27:37;;;;;;;9.35;4.22;;;;;;;11.69;23.66;94591.13;5093800;28;20024;-76
2021/04/10 10:30:13;;;;;;;8.18;3.78;;;;;;;11.76;23.69;94575.44;5061364;28;20052;-76
2021/04/10 10:32:42;;;;;;;10.43;4.07;;;;;;;11.83;24.15;94581.19;5075379;28;20024;-76
2021/04/10 10:35:09;;;;;;;11.00;3.80;;;;;;;12.01;24.52;94570.66;5093359;28;20262;-76
2021/04/10 10:37:35;;;;;;;10.90;3.33;;;;;;;12.20;24.62;94573.13;5093530;28;20035;-76
2021/04/10 10:40:01;;;;;;;11.85;3.55;;;;;;;12.38;23.29;94568.69;5058306;28;20052;-77
2021/04/10 10:42:26;;;;;;;6.65;3.20;;;;;;;12.49;23.65;94564.63;5075235;28;20047;-76
2021/04/10 10:44:52;;;;;;;14.85;4.75;;;;;;;12.51;21.46;94554.41;5093202;28;20058;-76
2021/04/10 10:47:18;;;;;;;7.15;3.60;;;;;;;12.45;23.16;94552.97;5074739;28;20508;-76
2021/04/10 10:49:50;;;;;;;10.10;3.20;;;;;;;12.58;23.19;94556.66;5073670;28;20533;-76
2021/04/10 10:52:16;;;;;;;5.60;3.17;;;;;;;12.62;23.13;94553.06;5071989;28;20125;-76
2021/04/10 10:54:42;;;;;;;6.50;3.28;;;;;;;12.77;23.26;94551.06;5075048;28;20491;-76
2021/04/10 10:57:12;;;;;;;10.75;4.22;;;;;;;12.82;22.13;94545.56;5069213;28;20173;-76
2021/04/10 10:59:38;;;;;;;9.57;3.53;;;;;;;12.88;23.15;94549.66;5049400;28;20392;-76
2021/04/10 11:02:03;;;;;;;10.40;3.50;;;;;;;13.09;23.05;94538.38;5063378;28;20019;-77
2021/04/10 11:04:35;;;;;;;7.75;3.03;;;;;;;13.13;22.03;94544.72;5108378;28;20479;-77
2021/04/10 11:07:03;;;;;;;11.75;3.67;;;;;;;13.18;21.44;94531.97;5074631;28;20116;-76
2021/04/10 11:09:32;;;;;;;6.15;3.08;;;;;;;13.34;22.18;94526.97;5092865;28;20057;-76
2021/04/10 11:12:00;;;;;;;6.65;2.80;;;;;;;13.51;22.28;94522.72;5074842;28;20479;-76
2021/04/10 11:14:31;;;;;;;6.97;3.40;;;;;;;13.70;21.75;94519.72;5073072;28;20402;-76
2021/04/10 11:16:58;;;;;;;9.27;3.50;;;;;;;13.86;21.64;94515.47;5092802;28;20020;-77
2021/04/10 11:19:30;;;;;;;10.77;4.00;;;;;;;14.00;20.82;94513.41;5074230;28;20034;-77
2021/04/10 11:21:57;;;;;;;8.70;2.95;;;;;;;13.98;20.40;94507.59;5092827;28;20510;-76
2021/04/10 11:24:53;;;;;;;9.70;3.65;;;;;;;14.02;19.18;94511.19;5092235;28;20020;-76
2021/04/10 11:27:23;;;;;;;7.72;3.33;;;;;;;13.90;20.03;94507.56;5091015;28;20111;-76
2021/04/10 11:29:56;;;;;;;8.35;3.53;;;;;;;13.95;20.56;94499.38;5082178;28;20027;-76
2021/04/10 11:32:57;;;;;;;11.90;3.47;;;;;;;13.99;20.11;94500.31;5092030;28;20404;-76
2021/04/10 11:35:23;;;;;;;16.13;4.53;;;;;;;13.98;20.88;94490.69;5026448;28;20022;-76
2021/04/10 11:37:53;;;;;;;15.40;3.55;;;;;;;14.14;22.10;94490.97;5075235;28;20078;-76
2021/04/10 11:40:24;;;;;;;7.07;3.85;;;;;;;14.38;21.56;94495.78;5092040;28;20044;-76
2021/04/10 11:42:52;;;;;;;6.27;3.23;;;;;;;14.58;21.31;94488.97;5067911;28;20028;-76